createdAt,value
2023-01-02T00:02:04.435Z,65.87
2023-01-02T00:04:33.949Z,66.27
2023-01-02T00:07:03.791Z,65.98
2023-01-02T00:09:33.139Z,66.02
2023-01-02T00:12:03.717Z,66.00
2023-01-02T00:14:33.976Z,65.80
2023-01-02T00:17:04.490Z,65.81
2023-01-02T00:19:35.695Z,65.86
2023-01-02T00:22:05.958Z,66.08
2023-01-02T00:24:35.847Z,66.22
2023-01-02T00:27:05.460Z,66.53
2023-01-02T00:29:35.107Z,65.97
2023-01-02T00:32:07.436Z,66.58
2023-01-02T00:34:36.707Z,66.28
2023-01-02T00:37:06.440Z,66.26
2023-01-02T00:39:36.073Z,65.70
2023-01-02T00:42:05.846Z,66.63
2023-01-02T00:44:35.562Z,66.52
2023-01-02T00:47:05.687Z,66.19
2023-01-02T00:49:34.997Z,66.34
2023-01-02T00:52:05.300Z,66.51
2023-01-02T00:54:37.988Z,67.09
2023-01-02T00:57:07.818Z,67.01
2023-01-02T00:59:37.728Z,66.64
2023-01-02T01:02:07.275Z,66.59
2023-01-02T01:04:37.964Z,66.61
2023-01-02T01:07:07.408Z,66.39
2023-01-02T01:09:37.107Z,66.67
2023-01-02T01:12:07.096Z,67.14
2023-01-02T01:14:36.368Z,67.21
2023-01-02T01:17:06.075Z,66.73
2023-01-02T01:19:38.484Z,66.67
2023-01-02T01:22:10.805Z,66.49
2023-01-02T01:24:40.853Z,66.96
2023-01-02T01:27:10.692Z,67.49
2023-01-02T01:29:42.045Z,66.74
2023-01-02T01:32:12.155Z,67.18
2023-01-02T01:34:42.037Z,66.68
2023-01-02T01:37:12.890Z,66.57
2023-01-02T01:39:42.742Z,67.04
2023-01-02T01:42:17.272Z,67.48
2023-01-02T01:44:50.121Z,66.78
2023-01-02T01:47:26.592Z,66.79
2023-01-02T01:50:05.599Z,67.54
2023-01-02T01:52:40.050Z,66.77
2023-01-02T01:55:14.568Z,67.60
2023-01-02T01:57:49.730Z,67.20
2023-01-02T02:00:19.551Z,67.37
2023-01-02T02:02:54.470Z,67.24
2023-01-02T02:05:28.842Z,66.84
2023-01-02T02:08:04.756Z,67.14
2023-01-02T02:10:34.342Z,67.67
2023-01-02T02:13:03.711Z,67.01
2023-01-02T02:15:46.636Z,67.50
2023-01-02T02:18:26.375Z,67.28
2023-01-02T02:21:00.874Z,67.32
2023-01-02T02:24:01.534Z,67.28
2023-01-02T02:27:10.129Z,67.21
2023-01-02T02:30:00.181Z,67.28
2023-01-02T02:32:40.757Z,67.16
2023-01-02T02:35:19.539Z,66.95
2023-01-02T02:37:55.148Z,67.10
2023-01-02T02:40:34.466Z,67.86
2023-01-02T02:43:17.893Z,67.35
2023-01-02T02:45:55.420Z,67.30
2023-01-02T02:48:31.660Z,67.39
2023-01-02T02:51:05.776Z,67.09
2023-01-02T02:53:38.444Z,67.90
2023-01-02T02:56:11.935Z,67.11
2023-01-02T02:58:43.328Z,67.32
2023-01-02T03:01:17.485Z,67.13
2023-01-02T03:03:49.075Z,67.02
2023-01-02T03:06:35.948Z,68.10
2023-01-02T03:09:13.218Z,67.31
2023-01-02T03:11:55.135Z,67.87
2023-01-02T03:14:33.151Z,67.81
2023-01-02T03:17:05.919Z,67.29
2023-01-02T03:19:38.441Z,67.50
2023-01-02T03:22:13.165Z,67.11
2023-01-02T03:24:51.441Z,67.32
2023-01-02T03:27:26.448Z,67.42
2023-01-02T03:30:01.709Z,67.64
2023-01-02T03:32:35.556Z,67.64
2023-01-02T03:35:10.636Z,67.50
2023-01-02T03:37:44.982Z,68.29
2023-01-02T03:40:19.638Z,67.42
2023-01-02T03:42:55.214Z,67.46
2023-01-02T03:45:27.627Z,67.24
2023-01-02T03:48:02.708Z,67.68
2023-01-02T03:50:37.042Z,67.47
2023-01-02T03:53:06.933Z,67.58
2023-01-02T03:55:39.931Z,67.66
2023-01-02T03:58:16.742Z,67.18
2023-01-02T04:00:56.167Z,67.52
2023-01-02T04:03:30.720Z,68.16
2023-01-02T04:06:05.261Z,68.05
2023-01-02T04:08:39.037Z,67.83
2023-01-02T04:11:09.155Z,67.88
2023-01-02T04:13:42.093Z,67.80
2023-01-02T04:16:17.039Z,68.06
2023-01-02T04:18:54.631Z,67.92
2023-01-02T04:21:29.236Z,67.79
2023-01-02T04:24:02.949Z,67.46
2023-01-02T04:26:35.702Z,68.28
2023-01-02T04:29:05.080Z,67.96
2023-01-02T04:31:39.617Z,67.86
2023-01-02T04:34:12.938Z,68.30
2023-01-02T04:36:42.544Z,67.34
2023-01-02T04:39:11.780Z,67.49
2023-01-02T04:41:41.392Z,67.80
2023-01-02T04:44:10.407Z,67.99
2023-01-02T04:46:39.943Z,68.77
2023-01-02T04:49:10.312Z,68.18
2023-01-02T04:51:39.410Z,68.75
2023-01-02T04:54:11.409Z,68.45
2023-01-02T04:56:40.524Z,68.39
2023-01-02T04:59:10.127Z,68.26
2023-01-02T05:01:39.585Z,68.42
2023-01-02T05:04:08.903Z,68.57
2023-01-02T05:06:38.155Z,68.79
2023-01-02T05:09:07.223Z,69.04
2023-01-02T05:11:36.250Z,68.70
2023-01-02T05:14:07.580Z,68.99
2023-01-02T05:16:38.010Z,68.64
2023-01-02T05:19:07.169Z,68.72
2023-01-02T05:21:54.346Z,68.61
2023-01-02T05:24:25.443Z,68.91
2023-01-02T05:26:55.057Z,69.47
2023-01-02T05:29:24.778Z,68.76
2023-01-02T05:31:54.506Z,69.44
2023-01-02T05:34:23.633Z,69.39
2023-01-02T05:36:53.552Z,68.90
2023-01-02T05:39:23.069Z,69.02
2023-01-02T05:41:53.150Z,69.12
2023-01-02T05:44:23.247Z,69.76
2023-01-02T05:46:54.866Z,69.38
2023-01-02T05:49:24.228Z,69.35
2023-01-02T05:51:54.330Z,69.42
2023-01-02T05:54:24.057Z,69.71
2023-01-02T05:56:56.350Z,69.59
2023-01-02T05:59:27.710Z,70.06
2023-01-02T06:01:57.107Z,69.52
2023-01-02T06:04:27.051Z,69.30
2023-01-02T06:06:56.247Z,69.92
2023-01-02T06:09:25.706Z,69.82
2023-01-02T06:11:57.117Z,69.71
2023-01-02T06:14:26.921Z,70.00
2023-01-02T06:16:56.507Z,69.50
2023-01-02T06:19:25.527Z,69.88
2023-01-02T06:21:54.503Z,69.46
2023-01-02T06:24:23.489Z,69.85
2023-01-02T06:26:52.612Z,69.46
2023-01-02T06:29:21.820Z,70.09
2023-01-02T06:31:51.794Z,70.01
2023-01-02T06:34:20.921Z,70.31
2023-01-02T06:36:49.844Z,69.46
2023-01-02T06:39:20.082Z,70.32
2023-01-02T06:41:49.148Z,70.39
2023-01-02T06:44:19.310Z,69.89
2023-01-02T06:46:48.153Z,69.73
2023-01-02T06:49:18.061Z,70.09
2023-01-02T06:51:46.991Z,70.25
2023-01-02T06:54:16.766Z,70.20
2023-01-02T06:56:45.571Z,70.22
2023-01-02T06:59:14.563Z,70.32
2023-01-02T07:01:44.464Z,70.35
2023-01-02T07:04:16.655Z,70.33
2023-01-02T07:06:45.759Z,70.52
2023-01-02T07:09:14.648Z,70.49
2023-01-02T07:11:44.222Z,70.17
2023-01-02T07:14:13.041Z,70.35
2023-01-02T07:16:42.491Z,70.09
2023-01-02T07:19:11.852Z,70.89
2023-01-02T07:21:40.717Z,70.90
2023-01-02T07:24:13.089Z,70.30
2023-01-02T07:26:42.118Z,70.48
2023-01-02T07:29:11.146Z,70.96
2023-01-02T07:31:40.316Z,70.52
2023-01-02T07:34:09.197Z,70.70
2023-01-02T07:36:38.015Z,70.39
2023-01-02T07:39:07.043Z,70.79
2023-01-02T07:41:36.188Z,70.84
2023-01-02T07:44:14.774Z,70.79
2023-01-02T07:46:44.432Z,71.24
2023-01-02T07:49:13.799Z,71.03
2023-01-02T07:51:42.705Z,70.87
2023-01-02T07:54:11.581Z,71.07
2023-01-02T07:56:40.582Z,71.25
2023-01-02T07:59:09.698Z,71.17
2023-01-02T08:01:39.359Z,71.17
2023-01-02T08:04:08.406Z,70.61
2023-01-02T08:06:40.418Z,70.88
2023-01-02T08:09:09.584Z,71.20
2023-01-02T08:11:38.455Z,70.58
2023-01-02T08:14:07.574Z,70.83
2023-01-02T08:16:36.878Z,70.91
2023-01-02T08:19:06.503Z,70.55
2023-01-02T08:21:35.356Z,70.46
2023-01-02T08:24:07.117Z,70.80
2023-01-02T08:26:36.381Z,70.95
2023-01-02T08:29:05.301Z,70.76
2023-01-02T08:31:39.990Z,70.58
2023-01-02T08:34:14.421Z,70.60
2023-01-02T08:36:45.005Z,70.39
2023-01-02T08:39:14.751Z,70.59
2023-01-02T08:41:44.452Z,70.93
2023-01-02T08:44:13.344Z,70.65
2023-01-02T08:46:43.059Z,70.29
2023-01-02T08:49:12.684Z,71.08
2023-01-02T08:51:41.521Z,70.59
2023-01-02T08:54:10.442Z,70.42
2023-01-02T08:56:40.865Z,69.71
2023-01-02T08:59:11.770Z,70.20
2023-01-02T09:01:42.473Z,69.96
2023-01-02T09:04:13.163Z,69.87
2023-01-02T09:06:43.701Z,69.88
2023-01-02T09:09:13.910Z,69.65
2023-01-02T09:11:45.916Z,69.83
2023-01-02T09:14:14.832Z,70.05
2023-01-02T09:16:47.483Z,69.79
2023-01-02T09:19:19.137Z,69.87
2023-01-02T09:21:48.364Z,70.04
2023-01-02T09:24:19.838Z,69.54
2023-01-02T09:26:48.695Z,69.68
2023-01-02T09:29:18.578Z,69.05
2023-01-02T09:31:47.893Z,69.99
2023-01-02T09:34:17.929Z,68.84
2023-01-02T09:36:47.301Z,68.71
2023-01-02T09:39:17.212Z,69.20
2023-01-02T09:41:50.092Z,69.28
2023-01-02T09:44:23.217Z,69.36
2023-01-02T09:46:56.307Z,69.50
2023-01-02T09:49:28.290Z,68.38
2023-01-02T09:51:57.595Z,68.43
2023-01-02T09:54:29.676Z,69.27
2023-01-02T09:57:18.667Z,68.86
2023-01-02T09:59:56.139Z,68.41
2023-01-02T10:02:43.502Z,68.94
2023-01-02T10:05:33.344Z,68.76
2023-01-02T10:08:10.984Z,68.53
2023-01-02T10:10:42.631Z,68.59
2023-01-02T10:13:20.535Z,67.79
2023-01-02T10:15:51.913Z,68.47
2023-01-02T10:18:24.856Z,67.73
2023-01-02T10:20:57.873Z,67.88
2023-01-02T10:23:30.258Z,67.82
2023-01-02T10:26:03.519Z,68.70
2023-01-02T10:28:43.827Z,68.16
2023-01-02T10:31:20.415Z,68.39
2023-01-02T10:33:53.961Z,68.00
2023-01-02T10:36:29.073Z,67.58
2023-01-02T10:39:01.050Z,68.11
2023-01-02T10:41:31.478Z,67.56
2023-01-02T10:44:02.845Z,67.38
2023-01-02T10:46:36.142Z,67.65
2023-01-02T10:49:07.841Z,67.01
2023-01-02T10:51:42.705Z,67.60
2023-01-02T10:54:11.740Z,67.35
2023-01-02T10:56:43.699Z,67.17
2023-01-02T10:59:21.745Z,67.34
2023-01-02T11:01:53.871Z,67.58
2023-01-02T11:04:24.992Z,67.65
2023-01-02T11:06:57.269Z,67.88
2023-01-02T11:09:28.800Z,67.06
2023-01-02T11:12:00.250Z,67.24
2023-01-02T11:14:33.338Z,66.99
2023-01-02T11:17:08.466Z,66.80
2023-01-02T11:19:42.769Z,66.96
2023-01-02T11:22:13.664Z,66.19
2023-01-02T11:24:59.832Z,66.79
2023-01-02T11:27:34.940Z,66.50
2023-01-02T11:30:06.547Z,66.72
2023-01-02T11:32:39.940Z,67.04
2023-01-02T11:35:33.955Z,66.43
2023-01-02T11:38:03.129Z,66.42
2023-01-02T11:40:33.382Z,66.35
2023-01-02T11:43:40.478Z,66.26
2023-01-02T11:46:22.880Z,66.77
2023-01-02T11:48:59.180Z,67.21
2023-01-02T11:51:29.736Z,66.74
2023-01-02T11:54:00.567Z,66.60
2023-01-02T11:56:33.670Z,66.04
2023-01-02T11:59:06.480Z,66.61
2023-01-02T12:01:51.657Z,66.98
2023-01-02T12:04:22.130Z,66.54
2023-01-02T12:07:18.701Z,65.74
2023-01-02T12:09:56.810Z,66.67
2023-01-02T12:12:44.308Z,66.24
2023-01-02T12:15:53.997Z,66.58
2023-01-02T12:18:32.986Z,66.38
2023-01-02T12:21:12.233Z,65.78
2023-01-02T12:24:07.569Z,66.39
2023-01-02T12:26:43.505Z,66.04
2023-01-02T12:29:46.727Z,66.20
2023-01-02T12:32:55.201Z,65.98
2023-01-02T12:35:40.752Z,66.03
2023-01-02T12:38:19.540Z,66.10
2023-01-02T12:41:04.072Z,65.93
2023-01-02T12:44:01.832Z,65.87
2023-01-02T12:46:50.825Z,66.08
2023-01-02T12:49:42.209Z,65.79
2023-01-02T12:52:24.917Z,64.94
2023-01-02T12:55:11.035Z,65.60
2023-01-02T12:57:52.287Z,64.98
2023-01-02T13:00:35.499Z,65.08
2023-01-02T13:03:37.481Z,65.27
2023-01-02T13:06:45.108Z,64.93
2023-01-02T13:09:10.711Z,64.49
2023-01-02T13:11:43.403Z,64.90
2023-01-02T13:14:17.916Z,65.10
2023-01-02T13:16:55.268Z,65.24
2023-01-02T13:19:34.133Z,64.64
2023-01-02T13:22:11.735Z,64.34
2023-01-02T13:24:41.040Z,65.09
2023-01-02T13:27:11.296Z,64.23
2023-01-02T13:29:45.090Z,64.56
2023-01-02T13:32:20.598Z,64.44
2023-01-02T13:34:52.734Z,64.16
2023-01-02T13:37:24.564Z,63.86
2023-01-02T13:39:55.769Z,64.18
2023-01-02T13:42:46.812Z,64.42
2023-01-02T13:45:20.177Z,64.78
2023-01-02T13:47:53.029Z,64.61
2023-01-02T13:50:27.518Z,64.14
2023-01-02T13:53:22.830Z,64.58
2023-01-02T13:56:13.405Z,64.28
2023-01-02T13:58:49.589Z,64.48
2023-01-02T14:02:06.558Z,63.99
2023-01-02T14:04:40.388Z,63.95
2023-01-02T14:07:41.030Z,63.85
2023-01-02T14:10:40.645Z,63.63
2023-01-02T14:13:22.417Z,63.92
2023-01-02T14:16:32.613Z,64.53
2023-01-02T14:19:24.720Z,63.93
2023-01-02T14:22:10.310Z,64.01
2023-01-02T14:24:43.320Z,64.58
2023-01-02T14:27:28.402Z,64.08
2023-01-02T14:30:00.766Z,63.99
2023-01-02T14:32:38.788Z,63.81
2023-01-02T14:35:27.243Z,64.04
2023-01-02T14:38:11.640Z,63.91
2023-01-02T14:40:42.762Z,63.77
2023-01-02T14:43:33.537Z,64.76
2023-01-02T14:46:14.826Z,64.98
2023-01-02T14:48:53.848Z,64.46
2023-01-02T14:51:31.109Z,64.33
2023-01-02T14:54:07.706Z,63.93
2023-01-02T14:56:40.475Z,64.37
2023-01-02T14:59:18.798Z,64.12
2023-01-02T15:01:50.813Z,65.03
2023-01-02T15:04:26.440Z,63.97
2023-01-02T15:07:10.217Z,64.38
2023-01-02T15:09:45.160Z,63.97
2023-01-02T15:12:43.443Z,64.54
2023-01-02T15:15:13.707Z,64.60
2023-01-02T15:17:44.017Z,64.23
2023-01-02T15:20:21.373Z,64.56
2023-01-02T15:22:53.126Z,64.56
2023-01-02T15:25:33.594Z,64.26
2023-01-02T15:28:03.638Z,64.31
2023-01-02T15:30:38.230Z,65.17
2023-01-02T15:33:27.852Z,64.81
2023-01-02T15:36:02.225Z,64.46
2023-01-02T15:38:32.791Z,65.41
2023-01-02T15:41:02.885Z,64.76
2023-01-02T15:43:52.658Z,64.14
2023-01-02T15:46:26.452Z,64.72
2023-01-02T15:48:59.064Z,64.80
2023-01-02T15:51:41.464Z,65.32
2023-01-02T15:54:14.748Z,65.37
2023-01-02T15:56:46.157Z,65.19
2023-01-02T15:59:29.176Z,65.33
2023-01-02T16:01:58.964Z,65.69
2023-01-02T16:04:30.732Z,65.92
2023-01-02T16:07:12.224Z,65.74
2023-01-02T16:09:48.252Z,65.35
2023-01-02T16:12:23.462Z,65.48
2023-01-02T16:14:56.077Z,65.41
2023-01-02T16:17:28.664Z,65.90
2023-01-02T16:20:00.866Z,66.22
2023-01-02T16:22:36.350Z,66.52
2023-01-02T16:25:12.996Z,66.33
2023-01-02T16:27:52.114Z,65.51
2023-01-02T16:30:37.907Z,65.81
2023-01-02T16:33:22.821Z,66.69
2023-01-02T16:36:00.525Z,65.96
2023-01-02T16:38:31.274Z,66.49
2023-01-02T16:41:11.243Z,66.35
2023-01-02T16:43:55.128Z,65.79
2023-01-02T16:46:26.977Z,66.41
2023-01-02T16:49:05.222Z,66.35
2023-01-02T16:51:34.827Z,66.32
2023-01-02T16:54:04.374Z,65.98
2023-01-02T16:56:33.944Z,66.28
2023-01-02T16:59:03.851Z,66.03
2023-01-02T17:01:37.710Z,66.81
2023-01-02T17:04:07.481Z,66.21
2023-01-02T17:06:36.931Z,66.35
2023-01-02T17:09:06.269Z,66.69
2023-01-02T17:11:37.296Z,66.82
2023-01-02T17:14:06.548Z,66.38
2023-01-02T17:16:37.155Z,67.00
2023-01-02T17:19:06.174Z,66.31
2023-01-02T17:21:35.472Z,66.70
2023-01-02T17:24:05.889Z,67.11
2023-01-02T17:26:36.287Z,67.02
2023-01-02T17:29:05.938Z,67.60
2023-01-02T17:31:37.447Z,66.82
2023-01-02T17:34:06.545Z,67.30
2023-01-02T17:36:35.980Z,67.00
2023-01-02T17:39:05.505Z,67.32
2023-01-02T17:41:35.750Z,67.40
2023-01-02T17:44:05.620Z,67.11
2023-01-02T17:47:09.322Z,67.25
2023-01-02T17:49:30.323Z,67.33
2023-01-02T17:52:03.000Z,67.76
2023-01-02T17:54:34.136Z,67.59
2023-01-02T17:57:04.062Z,67.99
2023-01-02T17:59:33.342Z,67.67
2023-01-02T18:02:02.927Z,67.22
2023-01-02T18:04:32.249Z,68.05
2023-01-02T18:07:01.390Z,68.12
2023-01-02T18:09:31.568Z,68.52
2023-01-02T18:12:01.252Z,68.12
2023-01-02T18:14:30.416Z,68.01
2023-01-02T18:17:02.188Z,67.94
2023-01-02T18:19:34.105Z,68.49
2023-01-02T18:22:08.731Z,68.12
2023-01-02T18:24:37.950Z,67.60
2023-01-02T18:27:21.035Z,67.92
2023-01-02T18:29:58.681Z,68.32
2023-01-02T18:32:35.892Z,67.86
2023-01-02T18:35:54.944Z,68.53
2023-01-02T18:38:18.121Z,68.47
2023-01-02T18:40:47.346Z,68.05
2023-01-02T18:43:22.872Z,68.51
2023-01-02T18:45:54.756Z,68.96
2023-01-02T18:48:24.818Z,69.02
2023-01-02T18:50:58.906Z,69.14
2023-01-02T18:53:30.039Z,68.26
2023-01-02T18:56:07.152Z,68.29
2023-01-02T18:58:42.894Z,68.30
2023-01-02T19:01:31.940Z,68.46
2023-01-02T19:04:24.497Z,68.88
2023-01-02T19:06:59.957Z,68.79
2023-01-02T19:09:32.605Z,68.57
2023-01-02T19:12:38.383Z,69.00
2023-01-02T19:15:35.930Z,69.25
2023-01-02T19:18:22.864Z,68.80
2023-01-02T19:20:55.842Z,69.16
2023-01-02T19:23:29.683Z,69.33
2023-01-02T19:26:12.599Z,69.78
2023-01-02T19:28:55.899Z,69.54
2023-01-02T19:31:29.821Z,69.35
2023-01-02T19:34:01.304Z,69.50
2023-01-02T19:36:39.622Z,69.72
2023-01-02T19:39:25.780Z,69.98
2023-01-02T19:42:13.234Z,69.71
2023-01-02T19:44:42.217Z,69.20
2023-01-02T19:47:11.810Z,69.69
2023-01-02T19:49:41.299Z,69.76
2023-01-02T19:52:11.625Z,70.04
2023-01-02T19:54:41.001Z,69.46
2023-01-02T19:57:11.053Z,69.96
2023-01-02T19:59:43.871Z,69.45
2023-01-02T20:02:14.344Z,69.39
2023-01-02T20:04:51.696Z,70.29
2023-01-02T20:07:26.395Z,69.67
2023-01-02T20:09:55.321Z,69.54
2023-01-02T20:12:33.581Z,69.93
2023-01-02T20:15:06.116Z,70.11
2023-01-02T20:17:37.147Z,69.45
2023-01-02T20:20:09.351Z,70.00
2023-01-02T20:22:38.466Z,69.68
2023-01-02T20:25:09.253Z,69.46
2023-01-02T20:27:38.248Z,69.89
2023-01-02T20:30:09.559Z,70.18
2023-01-02T20:32:39.008Z,70.29
2023-01-02T20:35:10.454Z,70.04
2023-01-02T20:37:39.667Z,70.01
2023-01-02T20:40:10.647Z,69.71
2023-01-02T20:42:39.585Z,70.03
2023-01-02T20:45:10.794Z,69.97
2023-01-02T20:47:39.721Z,69.82
2023-01-02T20:50:09.844Z,70.30
2023-01-02T20:52:39.341Z,69.95
2023-01-02T20:55:09.810Z,70.25
2023-01-02T20:57:38.955Z,70.17
2023-01-02T21:00:10.349Z,70.05
2023-01-02T21:02:39.493Z,69.87
2023-01-02T21:05:09.677Z,70.08
2023-01-02T21:07:39.571Z,70.21
2023-01-02T21:10:10.600Z,69.39
2023-01-02T21:12:58.227Z,70.16
2023-01-02T21:15:44.302Z,70.10
2023-01-02T21:18:17.366Z,69.75
2023-01-02T21:20:47.661Z,69.44
2023-01-02T21:23:17.707Z,69.94
2023-01-02T21:25:47.017Z,70.05
2023-01-02T21:28:17.636Z,69.69
2023-01-02T21:30:47.127Z,69.12
2023-01-02T21:33:18.013Z,69.84
2023-01-02T21:35:47.789Z,69.44
2023-01-02T21:38:18.216Z,69.12
2023-01-02T21:40:47.689Z,70.14
2023-01-02T21:43:17.535Z,69.53
2023-01-02T21:45:46.950Z,70.37
2023-01-02T21:48:16.050Z,70.02
2023-01-02T21:50:45.821Z,69.77
2023-01-02T21:53:16.619Z,69.85
2023-01-02T21:55:45.901Z,70.48
2023-01-02T21:58:15.293Z,69.51
2023-01-02T22:00:45.135Z,69.85
2023-01-02T22:03:14.485Z,69.75
2023-01-02T22:05:43.525Z,70.22
2023-01-02T22:08:12.484Z,69.74
2023-01-02T22:10:41.354Z,69.50
2023-01-02T22:13:10.434Z,69.77
2023-01-02T22:15:39.874Z,69.65
2023-01-02T22:18:11.332Z,69.33
2023-01-02T22:20:40.340Z,69.73
2023-01-02T22:23:09.524Z,69.30
2023-01-02T22:25:38.772Z,70.13
2023-01-02T22:28:08.331Z,69.79
2023-01-02T22:30:37.932Z,69.59
2023-01-02T22:33:07.681Z,69.20
2023-01-02T22:35:37.866Z,69.16
2023-01-02T22:38:06.866Z,70.20
2023-01-02T22:40:39.235Z,69.93
2023-01-02T22:43:12.420Z,69.71
2023-01-02T22:45:45.215Z,69.38
2023-01-02T22:48:21.997Z,69.72
2023-01-02T22:50:54.896Z,69.83
2023-01-02T22:53:27.020Z,69.42
2023-01-02T22:55:56.517Z,69.27
2023-01-02T22:58:25.731Z,69.37
2023-01-02T23:00:59.494Z,70.09
2023-01-02T23:03:33.667Z,70.11
2023-01-02T23:06:03.859Z,69.89
2023-01-02T23:08:33.246Z,70.23
2023-01-02T23:11:02.890Z,69.75
2023-01-02T23:13:33.444Z,69.40
2023-01-02T23:16:21.287Z,69.27
2023-01-02T23:19:09.607Z,69.75
2023-01-02T23:21:40.055Z,69.28
2023-01-02T23:24:10.566Z,70.19
2023-01-02T23:26:43.024Z,69.08
2023-01-02T23:29:12.853Z,69.70
2023-01-02T23:31:43.806Z,69.39
2023-01-02T23:34:14.838Z,69.75
2023-01-02T23:36:44.455Z,69.60
2023-01-02T23:39:22.061Z,69.70
2023-01-02T23:41:51.895Z,69.22
2023-01-02T23:44:23.379Z,69.72
2023-01-02T23:46:53.208Z,69.51
2023-01-02T23:49:23.085Z,70.17
2023-01-02T23:51:53.181Z,69.71
2023-01-02T23:54:22.548Z,69.78
2023-01-02T23:56:52.005Z,69.33
2023-01-02T23:59:23.111Z,69.22
